QFA301 YSSY-NZAA
Flight info
| Callsign | QFA301 |
|---|---|
| Flight time | N/A |
| Altitude | 35000 |
| Route | EVONN L521 LUNBI |
| Aircraft | B738/M-SDE2E3FGHIRWXY/LB1 |
Departure
| Time | 2026-05-03 23:44 |
|---|---|
| Airport | Sydney Kingsford Smith International Airport (YSSY) |
Arrival
| Time | N/A |
|---|---|
| Airport | Auckland International Airport (NZAA) |
| Time | Latitude | Longitude | Altitude | Speed | Heading |
|---|---|---|---|---|---|
| 2026-05-03 23:28 | -33.93389 | 151.16891 | 29 ft | 0 kts | 347° |
| 2026-05-03 23:30 | -33.93375 | 151.16887 | 29 ft | 4 kts | 349° |
| 2026-05-03 23:31 | -33.93334 | 151.16895 | 29 ft | 8 kts | 24° |
| 2026-05-03 23:31 | -33.93289 | 151.16952 | 29 ft | 11 kts | 70° |
| 2026-05-03 23:31 | -33.93304 | 151.17025 | 29 ft | 7 kts | 139° |
| 2026-05-03 23:31 | -33.93355 | 151.17062 | 29 ft | 11 kts | 158° |
| 2026-05-03 23:32 | -33.93441 | 151.17088 | 29 ft | 15 kts | 168° |
| 2026-05-03 23:32 | -33.93556 | 151.17116 | 28 ft | 19 kts | 168° |
| 2026-05-03 23:32 | -33.93696 | 151.17152 | 28 ft | 22 kts | 167° |
| 2026-05-03 23:32 | -33.93851 | 151.17194 | 28 ft | 23 kts | 167° |
| 2026-05-03 23:33 | -33.94003 | 151.17234 | 28 ft | 22 kts | 168° |
| 2026-05-03 23:33 | -33.94145 | 151.17270 | 27 ft | 20 kts | 167° |
| 2026-05-03 23:33 | -33.94278 | 151.17305 | 29 ft | 19 kts | 168° |
| 2026-05-03 23:33 | -33.94406 | 151.17338 | 29 ft | 19 kts | 168° |
| 2026-05-03 23:34 | -33.94529 | 151.17370 | 29 ft | 18 kts | 167° |
| 2026-05-03 23:34 | -33.94650 | 151.17402 | 29 ft | 17 kts | 167° |
| 2026-05-03 23:34 | -33.94766 | 151.17431 | 29 ft | 17 kts | 167° |
| 2026-05-03 23:34 | -33.94876 | 151.17460 | 29 ft | 16 kts | 168° |
| 2026-05-03 23:35 | -33.94983 | 151.17488 | 29 ft | 15 kts | 168° |
| 2026-05-03 23:35 | -33.95087 | 151.17513 | 29 ft | 15 kts | 168° |
| 2026-05-03 23:35 | -33.95185 | 151.17538 | 28 ft | 14 kts | 168° |
| 2026-05-03 23:35 | -33.95280 | 151.17564 | 28 ft | 14 kts | 168° |
| 2026-05-03 23:36 | -33.95370 | 151.17588 | 29 ft | 13 kts | 168° |
| 2026-05-03 23:36 | -33.95457 | 151.17611 | 29 ft | 13 kts | 168° |
| 2026-05-03 23:36 | -33.95514 | 151.17625 | 29 ft | 12 kts | 168° |
| 2026-05-03 23:36 | -33.95598 | 151.17646 | 29 ft | 12 kts | 168° |
| 2026-05-03 23:37 | -33.95679 | 151.17667 | 29 ft | 12 kts | 167° |
| 2026-05-03 23:37 | -33.95759 | 151.17689 | 29 ft | 12 kts | 167° |
| 2026-05-03 23:37 | -33.95861 | 151.17715 | 29 ft | 11 kts | 168° |
| 2026-05-03 23:37 | -33.95935 | 151.17734 | 29 ft | 11 kts | 167° |
| 2026-05-03 23:38 | -33.96007 | 151.17754 | 29 ft | 10 kts | 167° |
| 2026-05-03 23:38 | -33.96055 | 151.17766 | 29 ft | 10 kts | 167° |
| 2026-05-03 23:38 | -33.96123 | 151.17784 | 29 ft | 10 kts | 168° |
| 2026-05-03 23:38 | -33.96190 | 151.17802 | 29 ft | 10 kts | 168° |
| 2026-05-03 23:39 | -33.96255 | 151.17818 | 29 ft | 9 kts | 168° |
| 2026-05-03 23:39 | -33.96318 | 151.17835 | 29 ft | 9 kts | 168° |
| 2026-05-03 23:39 | -33.96380 | 151.17850 | 29 ft | 9 kts | 168° |
| 2026-05-03 23:39 | -33.96430 | 151.17889 | 29 ft | 9 kts | 126° |
| 2026-05-03 23:40 | -33.96433 | 151.17946 | 29 ft | 7 kts | 81° |
| 2026-05-03 23:40 | -33.96424 | 151.18001 | 29 ft | 7 kts | 78° |
| 2026-05-03 23:40 | -33.96400 | 151.18045 | 29 ft | 6 kts | 24° |
| 2026-05-03 23:40 | -33.96355 | 151.18045 | 29 ft | 6 kts | 349° |
| 2026-05-03 23:41 | -33.96350 | 151.18044 | 29 ft | 0 kts | 350° |
| 2026-05-03 23:41 | -33.96349 | 151.18044 | 29 ft | 0 kts | 349° |
| 2026-05-03 23:43 | -33.96315 | 151.18036 | 29 ft | 29 kts | 349° |
| 2026-05-03 23:43 | -33.95836 | 151.17911 | 28 ft | 111 kts | 348° |
| 2026-05-03 23:44 | -33.94853 | 151.17628 | 112 ft | 172 kts | 344° |
| 2026-05-03 23:44 | -33.93641 | 151.17314 | 1071 ft | 177 kts | 347° |
| 2026-05-03 23:44 | -33.92432 | 151.16949 | 2139 ft | 189 kts | 337° |
| 2026-05-03 23:44 | -33.91420 | 151.15835 | 2481 ft | 212 kts | 303° |
| 2026-05-03 23:45 | -33.90664 | 151.14261 | 2888 ft | 227 kts | 303° |
| 2026-05-03 23:45 | -33.89815 | 151.12555 | 3473 ft | 243 kts | 304° |
| 2026-05-03 23:45 | -33.88930 | 151.10815 | 4336 ft | 245 kts | 305° |
| 2026-05-03 23:45 | -33.88016 | 151.09057 | 5097 ft | 251 kts | 305° |
| 2026-05-03 23:46 | -33.87067 | 151.07260 | 6002 ft | 257 kts | 306° |
| 2026-05-03 23:46 | -33.86099 | 151.05441 | 6933 ft | 260 kts | 306° |
| 2026-05-03 23:46 | -33.85117 | 151.03602 | 7800 ft | 262 kts | 305° |
| 2026-05-03 23:46 | -33.84141 | 151.01729 | 8572 ft | 268 kts | 299° |
| 2026-05-03 23:47 | -33.83672 | 150.99534 | 9319 ft | 277 kts | 275° |
| 2026-05-03 23:47 | -33.84037 | 150.97238 | 10115 ft | 288 kts | 248° |
| 2026-05-03 23:47 | -33.85231 | 150.95218 | 10585 ft | 312 kts | 226° |
| 2026-05-03 23:47 | -33.87141 | 150.93750 | 10723 ft | 342 kts | 204° |
| 2026-05-03 23:48 | -33.89550 | 150.93142 | 10895 ft | 367 kts | 184° |
| 2026-05-03 23:48 | -33.91269 | 150.93207 | 11097 ft | 379 kts | 173° |
| 2026-05-03 23:48 | -33.94601 | 150.94715 | 11850 ft | 387 kts | 152° |
| 2026-05-03 23:48 | -33.96985 | 150.96242 | 12528 ft | 389 kts | 158° |
| 2026-05-03 23:49 | -33.99568 | 150.97013 | 13127 ft | 389 kts | 179° |
| 2026-05-03 23:49 | -34.00481 | 150.97006 | 13337 ft | 388 kts | 188° |
| 2026-05-03 23:49 | -34.03994 | 150.96088 | 14181 ft | 388 kts | 198° |
| 2026-05-03 23:50 | -34.10142 | 150.94009 | 15384 ft | 397 kts | 199° |
| 2026-05-03 23:50 | -34.11949 | 150.93399 | 15767 ft | 400 kts | 199° |
| 2026-05-03 23:50 | -34.15552 | 150.92203 | 16467 ft | 405 kts | 199° |
| 2026-05-03 23:50 | -34.18288 | 150.91308 | 16991 ft | 408 kts | 199° |
| 2026-05-03 23:51 | -34.21042 | 150.90412 | 17497 ft | 412 kts | 199° |
| 2026-05-03 23:51 | -34.23827 | 150.89509 | 18004 ft | 416 kts | 199° |
| 2026-05-03 23:51 | -34.26633 | 150.88599 | 18472 ft | 419 kts | 199° |
| 2026-05-03 23:51 | -34.29460 | 150.87682 | 18890 ft | 422 kts | 199° |
| 2026-05-03 23:52 | -34.32311 | 150.86756 | 19339 ft | 425 kts | 199° |
| 2026-05-03 23:52 | -34.35142 | 150.85836 | 19785 ft | 428 kts | 199° |
| 2026-05-03 23:52 | -34.38031 | 150.84896 | 20227 ft | 431 kts | 199° |
| 2026-05-03 23:52 | -34.41042 | 150.84430 | 20626 ft | 444 kts | 180° |
| 2026-05-03 23:53 | -34.44090 | 150.85191 | 21083 ft | 453 kts | 160° |
| 2026-05-03 23:53 | -34.46834 | 150.87115 | 21484 ft | 461 kts | 140° |
| 2026-05-03 23:53 | -34.48945 | 150.90034 | 21849 ft | 464 kts | 120° |
| 2026-05-03 23:53 | -34.50161 | 150.93643 | 22216 ft | 463 kts | 99° |
| 2026-05-03 23:54 | -34.50369 | 150.97504 | 22600 ft | 457 kts | 80° |
| 2026-05-03 23:54 | -34.49632 | 151.01217 | 22985 ft | 451 kts | 66° |
| 2026-05-03 23:54 | -34.48583 | 151.04812 | 23366 ft | 453 kts | 65° |
| 2026-05-03 23:54 | -34.47484 | 151.08418 | 23689 ft | 457 kts | 65° |
| 2026-05-03 23:55 | -34.46392 | 151.11992 | 23986 ft | 460 kts | 65° |
| 2026-05-03 23:55 | -34.45290 | 151.15643 | 24322 ft | 461 kts | 65° |
| 2026-05-03 23:55 | -34.44201 | 151.19308 | 24652 ft | 463 kts | 66° |
| 2026-05-03 23:55 | -34.43119 | 151.22992 | 24970 ft | 466 kts | 66° |
| 2026-05-03 23:56 | -34.42036 | 151.26702 | 25280 ft | 468 kts | 66° |
| 2026-05-03 23:56 | -34.40951 | 151.30427 | 25575 ft | 470 kts | 66° |
| 2026-05-03 23:56 | -34.39860 | 151.34171 | 25868 ft | 472 kts | 66° |
| 2026-05-03 23:56 | -34.38765 | 151.37925 | 26177 ft | 474 kts | 66° |
| 2026-05-03 23:57 | -34.37664 | 151.41694 | 26470 ft | 476 kts | 66° |
| 2026-05-03 23:57 | -34.36554 | 151.45485 | 26731 ft | 479 kts | 66° |
| 2026-05-03 23:57 | -34.35439 | 151.49287 | 26989 ft | 481 kts | 66° |
| 2026-05-03 23:57 | -34.34315 | 151.53114 | 27250 ft | 483 kts | 66° |
| 2026-05-03 23:58 | -34.33186 | 151.56952 | 27515 ft | 485 kts | 66° |
| 2026-05-03 23:58 | -34.32050 | 151.60809 | 27752 ft | 487 kts | 66° |
| 2026-05-03 23:58 | -34.30910 | 151.64675 | 28000 ft | 489 kts | 66° |
| 2026-05-03 23:58 | -34.29762 | 151.68562 | 28242 ft | 491 kts | 66° |
| 2026-05-03 23:59 | -34.28611 | 151.72456 | 28476 ft | 493 kts | 65° |
| 2026-05-03 23:59 | -34.27452 | 151.76371 | 28705 ft | 496 kts | 65° |
| 2026-05-03 23:59 | -34.26285 | 151.80305 | 28921 ft | 498 kts | 65° |
| 2026-05-03 23:59 | -34.25116 | 151.84248 | 29190 ft | 499 kts | 65° |
| 2026-05-04 00:00 | -34.23960 | 151.88139 | 29524 ft | 498 kts | 65° |
| 2026-05-04 00:00 | -34.22791 | 151.92074 | 29895 ft | 497 kts | 65° |
| 2026-05-04 00:00 | -34.21621 | 151.95999 | 30192 ft | 497 kts | 65° |
| 2026-05-04 00:00 | -34.20695 | 152.00051 | 30368 ft | 506 kts | 77° |
| 2026-05-04 00:01 | -34.20479 | 152.04334 | 30558 ft | 515 kts | 89° |
| 2026-05-04 00:01 | -34.20962 | 152.08629 | 30777 ft | 520 kts | 103° |
| 2026-05-04 00:01 | -34.22081 | 152.12796 | 30997 ft | 522 kts | 108° |
| 2026-05-04 00:01 | -34.23327 | 152.16926 | 31190 ft | 524 kts | 109° |
| 2026-05-04 00:02 | -34.24602 | 152.21068 | 31367 ft | 525 kts | 109° |
| 2026-05-04 00:02 | -34.24816 | 152.21765 | 31404 ft | 526 kts | 109° |